createdAt,value
2022-11-18T00:01:35.941Z,5.20
2022-11-18T00:04:43.190Z,5.16
2022-11-18T00:07:50.659Z,5.12
2022-11-18T00:10:57.349Z,5.10
2022-11-18T00:14:04.706Z,5.12
2022-11-18T00:17:11.969Z,5.07
2022-11-18T00:20:18.603Z,5.04
2022-11-18T00:23:26.091Z,5.02
2022-11-18T00:26:32.813Z,4.99
2022-11-18T00:29:40.279Z,4.98
2022-11-18T00:32:47.563Z,4.98
2022-11-18T00:35:54.272Z,4.96
2022-11-18T00:39:01.858Z,4.98
2022-11-18T00:42:09.229Z,4.94
2022-11-18T00:45:16.195Z,4.91
2022-11-18T00:48:23.214Z,4.88
2022-11-18T00:51:29.826Z,4.88
2022-11-18T00:54:37.066Z,4.89
2022-11-18T00:57:43.911Z,4.89
2022-11-18T01:00:50.965Z,4.86
2022-11-18T01:03:58.273Z,4.80
2022-11-18T01:07:05.316Z,4.79
2022-11-18T01:10:12.198Z,4.83
2022-11-18T01:13:19.524Z,4.86
2022-11-18T01:16:26.128Z,4.83
2022-11-18T01:19:33.339Z,4.79
2022-11-18T01:22:40.285Z,4.79
2022-11-18T01:25:46.868Z,4.83
2022-11-18T01:28:50.612Z,4.84
2022-11-18T01:35:02.060Z,4.86
2022-11-18T01:38:09.654Z,4.88
2022-11-18T01:41:16.354Z,4.91
2022-11-18T01:44:23.855Z,4.91
2022-11-18T01:47:31.396Z,4.92
2022-11-18T01:50:38.053Z,4.89
2022-11-18T01:53:45.494Z,4.88
2022-11-18T01:56:52.855Z,4.86
2022-11-18T01:59:59.580Z,4.86
2022-11-18T02:03:07.044Z,4.84
2022-11-18T02:06:14.452Z,4.83
2022-11-18T02:09:21.157Z,4.77
2022-11-18T02:12:28.696Z,4.76
2022-11-18T02:15:35.750Z,4.80
2022-11-18T02:18:42.669Z,4.76
2022-11-18T02:21:50.077Z,4.75
2022-11-18T02:24:57.060Z,4.76
2022-11-18T02:28:04.169Z,4.76
2022-11-18T02:31:11.188Z,4.75
2022-11-18T02:34:18.567Z,4.75
2022-11-18T02:37:25.444Z,4.67
2022-11-18T02:40:32.432Z,4.61
2022-11-18T02:43:40.051Z,4.55
2022-11-18T02:46:47.082Z,4.55
2022-11-18T02:49:54.368Z,4.50
2022-11-18T02:53:02.032Z,4.44
2022-11-18T02:56:08.831Z,4.42
2022-11-18T02:59:16.651Z,4.36
2022-11-18T03:02:24.304Z,4.32
2022-11-18T03:05:31.042Z,4.29
2022-11-18T03:08:38.567Z,4.26
2022-11-18T03:11:45.996Z,4.29
2022-11-18T03:14:52.736Z,4.28
2022-11-18T03:18:00.426Z,4.33
2022-11-18T03:21:07.433Z,4.28
2022-11-18T03:24:14.505Z,4.25
2022-11-18T03:27:21.986Z,4.22
2022-11-18T03:30:28.648Z,4.19
2022-11-18T03:33:36.058Z,4.21
2022-11-18T03:36:43.339Z,4.21
2022-11-18T03:39:50.079Z,4.24
2022-11-18T03:42:57.229Z,4.16
2022-11-18T03:46:04.388Z,4.16
2022-11-18T03:49:11.081Z,4.19
2022-11-18T03:52:18.183Z,4.21
2022-11-18T03:55:25.528Z,4.16
2022-11-18T03:58:32.623Z,4.16
2022-11-18T04:01:39.626Z,4.15
2022-11-18T04:04:47.054Z,4.18
2022-11-18T04:07:54.254Z,4.04
2022-11-18T04:11:01.204Z,3.94
2022-11-18T04:14:08.643Z,3.86
2022-11-18T04:17:15.734Z,3.88
2022-11-18T04:20:22.874Z,3.89
2022-11-18T04:23:30.465Z,3.89
2022-11-18T04:26:37.263Z,3.82
2022-11-18T04:29:44.765Z,3.78
2022-11-18T04:32:52.325Z,3.75
2022-11-18T04:35:59.176Z,3.76
2022-11-18T04:39:06.809Z,3.75
2022-11-18T04:42:14.108Z,3.75
2022-11-18T04:45:20.819Z,3.72
2022-11-18T04:48:28.305Z,3.71
2022-11-18T04:51:35.299Z,3.71
2022-11-18T04:54:41.983Z,3.65
2022-11-18T04:57:49.399Z,3.60
2022-11-18T05:00:56.227Z,3.62
2022-11-18T05:04:03.321Z,3.57
2022-11-18T05:07:10.873Z,3.58
2022-11-18T05:10:17.684Z,3.60
2022-11-18T05:13:25.130Z,3.60
2022-11-18T05:16:32.969Z,3.58
2022-11-18T05:19:39.792Z,3.52
2022-11-18T05:22:46.983Z,3.44
2022-11-18T05:25:58.275Z,3.40
2022-11-18T05:28:57.134Z,3.39
2022-11-18T05:32:04.544Z,3.36
2022-11-18T05:35:11.714Z,3.39
2022-11-18T05:38:19.112Z,3.42
2022-11-18T05:41:26.673Z,3.42
2022-11-18T05:44:33.867Z,3.33
2022-11-18T05:47:41.046Z,3.30
2022-11-18T05:50:48.208Z,3.23
2022-11-18T05:53:55.827Z,3.15
2022-11-18T05:57:02.828Z,3.20
2022-11-18T06:00:09.926Z,3.16
2022-11-18T06:03:17.521Z,3.13
2022-11-18T06:06:24.634Z,3.15
2022-11-18T06:09:31.913Z,3.16
2022-11-18T06:12:38.970Z,3.16
2022-11-18T06:15:46.499Z,3.13
2022-11-18T06:18:53.713Z,3.16
2022-11-18T06:22:00.751Z,3.21
2022-11-18T06:25:08.302Z,3.20
2022-11-18T06:28:15.426Z,3.21
2022-11-18T06:31:22.512Z,3.18
2022-11-18T06:34:29.615Z,3.10
2022-11-18T06:37:36.995Z,3.03
2022-11-18T06:40:44.222Z,3.02
2022-11-18T06:43:51.362Z,2.98
2022-11-18T06:46:58.906Z,2.92
2022-11-18T06:50:05.660Z,2.97
2022-11-18T06:53:13.053Z,2.98
2022-11-18T06:56:20.334Z,2.95
2022-11-18T06:59:27.155Z,3.00
2022-11-18T07:02:34.623Z,2.94
2022-11-18T07:05:41.406Z,2.95
2022-11-18T07:08:48.832Z,2.88
2022-11-18T07:11:56.366Z,2.81
2022-11-18T07:15:03.116Z,2.82
2022-11-18T07:18:10.467Z,2.84
2022-11-18T07:21:18.047Z,2.74
2022-11-18T07:24:24.727Z,2.77
2022-11-18T07:27:32.257Z,2.85
2022-11-18T07:30:39.490Z,2.82
2022-11-18T07:33:46.948Z,2.84
2022-11-18T07:36:54.647Z,2.82
2022-11-18T07:40:01.818Z,2.71
2022-11-18T07:43:09.199Z,2.76
2022-11-18T07:46:16.897Z,2.74
2022-11-18T07:49:24.382Z,2.71
2022-11-18T07:52:31.748Z,2.73
2022-11-18T07:55:39.171Z,2.63
2022-11-18T07:58:46.925Z,2.63
2022-11-18T08:01:54.377Z,2.66
2022-11-18T08:05:02.014Z,2.66
2022-11-18T08:08:09.364Z,2.73
2022-11-18T08:11:21.821Z,2.69
2022-11-18T08:14:19.394Z,2.67
2022-11-18T08:17:26.894Z,2.52
2022-11-18T08:20:34.785Z,2.51
2022-11-18T08:23:42.962Z,2.56
2022-11-18T08:26:50.405Z,2.53
2022-11-18T08:29:57.904Z,2.53
2022-11-18T08:33:05.746Z,2.53
2022-11-18T08:36:13.186Z,2.52
2022-11-18T08:39:20.562Z,2.51
2022-11-18T08:42:33.970Z,2.46
2022-11-18T08:45:30.644Z,2.48
2022-11-18T08:48:38.299Z,2.55
2022-11-18T08:51:45.457Z,2.52
2022-11-18T08:54:52.194Z,2.48
2022-11-18T08:57:59.799Z,2.41
2022-11-18T09:01:06.968Z,2.41
2022-11-18T09:04:14.171Z,2.35
2022-11-18T09:07:21.788Z,2.38
2022-11-18T09:10:28.680Z,2.49
2022-11-18T09:16:41.011Z,2.41
2022-11-18T09:19:48.463Z,2.34
2022-11-18T09:22:56.205Z,2.35
2022-11-18T09:26:03.431Z,2.35
2022-11-18T09:29:10.602Z,2.33
2022-11-18T09:32:18.273Z,2.35
2022-11-18T09:35:25.453Z,2.41
2022-11-18T09:38:32.658Z,2.38
2022-11-18T09:41:40.153Z,2.34
2022-11-18T09:44:47.355Z,2.31
2022-11-18T09:47:54.562Z,2.33
2022-11-18T09:51:02.034Z,2.35
2022-11-18T09:54:09.214Z,2.31
2022-11-18T09:57:16.406Z,2.22
2022-11-18T10:00:23.515Z,2.22
2022-11-18T10:03:31.106Z,2.23
2022-11-18T10:06:38.066Z,2.22
2022-11-18T10:09:45.137Z,2.27
2022-11-18T10:12:52.595Z,2.19
2022-11-18T10:15:59.298Z,2.16
2022-11-18T10:19:06.608Z,2.15
2022-11-18T10:22:20.969Z,2.10
2022-11-18T10:25:18.137Z,2.09
2022-11-18T10:28:25.800Z,2.10
2022-11-18T10:31:33.258Z,2.15
2022-11-18T10:34:40.090Z,2.13
2022-11-18T10:38:06.700Z,2.08
2022-11-18T10:40:52.021Z,2.08
2022-11-18T10:43:59.270Z,2.16
2022-11-18T10:47:06.846Z,2.10
2022-11-18T10:50:13.993Z,2.08
2022-11-18T10:53:21.282Z,2.09
2022-11-18T10:56:28.410Z,2.01
2022-11-18T10:59:36.270Z,1.99
2022-11-18T11:02:43.783Z,1.99
2022-11-18T11:05:51.165Z,1.93
2022-11-18T11:08:58.817Z,1.97
2022-11-18T11:12:06.334Z,2.09
2022-11-18T11:15:13.715Z,2.04
2022-11-18T11:18:21.473Z,2.04
2022-11-18T11:21:28.454Z,2.06
2022-11-18T11:24:36.185Z,2.06
2022-11-18T11:30:47.952Z,2.10
2022-11-18T11:33:55.414Z,2.04
2022-11-18T11:37:03.084Z,2.13
2022-11-18T11:40:09.926Z,2.10
2022-11-18T11:43:17.197Z,2.09
2022-11-18T11:46:24.429Z,2.13
2022-11-18T11:49:31.577Z,2.22
2022-11-18T11:52:39.166Z,2.19
2022-11-18T11:55:46.326Z,2.16
2022-11-18T11:58:53.508Z,2.17
2022-11-18T12:02:00.968Z,2.04
2022-11-18T12:05:08.238Z,1.93
2022-11-18T12:08:15.389Z,2.02
2022-11-18T12:11:22.460Z,2.02
2022-11-18T12:14:29.669Z,1.99
2022-11-18T12:17:36.909Z,1.83
2022-11-18T12:20:44.179Z,1.82
2022-11-18T12:23:51.631Z,1.83
2022-11-18T12:26:58.600Z,1.87
2022-11-18T12:30:05.870Z,1.89
2022-11-18T12:33:13.072Z,1.91
2022-11-18T12:36:20.152Z,1.80
2022-11-18T12:39:27.829Z,1.65
2022-11-18T12:42:35.020Z,1.65
2022-11-18T12:45:42.275Z,1.62
2022-11-18T12:48:50.133Z,1.69
2022-11-18T12:51:57.154Z,1.60
2022-11-18T12:55:04.978Z,1.62
2022-11-18T12:58:12.612Z,1.68
2022-11-18T13:01:19.708Z,1.61
2022-11-18T13:04:27.245Z,1.58
2022-11-18T13:07:35.213Z,1.61
2022-11-18T13:10:42.185Z,1.47
2022-11-18T13:13:49.935Z,1.36
2022-11-18T13:16:57.787Z,1.46
2022-11-18T13:20:04.695Z,1.42
2022-11-18T13:23:12.107Z,1.36
2022-11-18T13:26:19.277Z,1.37
2022-11-18T13:29:26.398Z,1.36
2022-11-18T13:32:33.758Z,1.28
2022-11-18T13:35:40.957Z,1.33
2022-11-18T13:38:48.189Z,1.34
2022-11-18T13:41:55.679Z,1.36
2022-11-18T13:45:02.765Z,1.36
2022-11-18T13:48:09.828Z,1.42
2022-11-18T13:51:16.991Z,1.44
2022-11-18T13:54:24.640Z,1.44
2022-11-18T13:57:31.691Z,1.46
2022-11-18T14:00:38.681Z,1.39
2022-11-18T14:03:46.092Z,1.40
2022-11-18T14:06:52.851Z,1.37
2022-11-18T14:10:00.089Z,1.32
2022-11-18T14:13:07.199Z,1.24
2022-11-18T14:16:14.494Z,1.19
2022-11-18T14:19:22.127Z,1.16
2022-11-18T14:22:29.314Z,1.15
2022-11-18T14:25:36.546Z,1.07
2022-11-18T14:28:44.164Z,1.04
2022-11-18T14:31:51.051Z,1.01
2022-11-18T14:34:58.514Z,1.03
2022-11-18T14:41:10.255Z,0.89
2022-11-18T14:44:17.826Z,0.90
2022-11-18T14:47:25.356Z,0.89
2022-11-18T14:50:32.046Z,0.86
2022-11-18T14:53:39.536Z,0.86
2022-11-18T14:56:46.498Z,0.79
2022-11-18T14:59:53.239Z,0.76
2022-11-18T15:03:00.802Z,0.68
2022-11-18T15:06:07.968Z,0.65
2022-11-18T15:09:15.199Z,0.62
2022-11-18T15:12:22.738Z,0.58
2022-11-18T15:15:29.870Z,0.57
2022-11-18T15:18:37.101Z,0.49
2022-11-18T15:21:44.343Z,0.52
2022-11-18T15:24:51.938Z,0.49
2022-11-18T15:27:59.009Z,0.49
2022-11-18T15:31:06.250Z,0.41
2022-11-18T15:34:13.420Z,0.42
2022-11-18T15:37:20.490Z,0.41
2022-11-18T15:40:27.512Z,0.41
2022-11-18T15:43:34.431Z,0.43
2022-11-18T15:46:41.450Z,0.41
2022-11-18T15:49:48.472Z,0.41
2022-11-18T15:52:55.562Z,0.41
2022-11-18T15:56:02.683Z,0.38
2022-11-18T15:59:10.111Z,0.34
2022-11-18T16:02:17.305Z,0.41
2022-11-18T16:05:24.357Z,0.48
2022-11-18T16:08:31.784Z,0.58
2022-11-18T16:11:38.916Z,0.61
2022-11-18T16:14:46.146Z,0.58
2022-11-18T16:17:53.591Z,0.58
2022-11-18T16:21:00.651Z,0.53
2022-11-18T16:24:07.615Z,0.61
2022-11-18T16:27:14.614Z,0.61
2022-11-18T16:30:21.306Z,0.52
2022-11-18T16:33:28.546Z,0.52
2022-11-18T16:36:35.612Z,0.49
2022-11-18T16:39:42.736Z,0.45
2022-11-18T16:42:50.308Z,0.45
2022-11-18T16:45:57.066Z,0.48
2022-11-18T16:49:04.586Z,0.43
2022-11-18T16:52:11.986Z,0.43
2022-11-18T16:55:18.737Z,0.49
2022-11-18T16:58:26.269Z,0.42
2022-11-18T17:01:33.648Z,0.36
2022-11-18T17:04:40.549Z,0.33
2022-11-18T17:07:48.156Z,0.38
2022-11-18T17:10:55.328Z,0.36
2022-11-18T17:14:03.220Z,0.38
2022-11-18T17:17:11.102Z,0.34
2022-11-18T17:20:18.381Z,0.34
2022-11-18T17:23:25.406Z,0.39
2022-11-18T17:26:32.877Z,0.41
2022-11-18T17:29:39.610Z,0.42
2022-11-18T17:32:46.973Z,0.38
2022-11-18T17:35:54.462Z,0.41
2022-11-18T17:39:01.499Z,0.36
2022-11-18T17:42:08.597Z,0.34
2022-11-18T17:45:15.290Z,0.36
2022-11-18T17:48:22.392Z,0.34
2022-11-18T17:51:29.233Z,0.36
2022-11-18T17:54:36.072Z,0.34
2022-11-18T17:57:43.351Z,0.30
2022-11-18T18:00:50.303Z,0.28
2022-11-18T18:03:58.013Z,0.33
2022-11-18T18:07:05.309Z,0.34
2022-11-18T18:10:12.584Z,0.31
2022-11-18T18:13:20.183Z,0.30
2022-11-18T18:16:26.987Z,0.31
2022-11-18T18:19:34.286Z,0.28
2022-11-18T18:22:41.485Z,0.34
2022-11-18T18:25:48.474Z,0.36
2022-11-18T18:28:55.924Z,0.25
2022-11-18T18:32:03.016Z,0.25
2022-11-18T18:35:10.146Z,0.24
2022-11-18T18:38:17.666Z,0.24
2022-11-18T18:41:24.474Z,0.27
2022-11-18T18:44:32.000Z,0.21
2022-11-18T18:47:39.586Z,0.13
2022-11-18T18:50:46.247Z,0.15
2022-11-18T18:53:53.866Z,0.10
2022-11-18T18:57:00.728Z,0.18
2022-11-18T19:00:07.567Z,0.15
2022-11-18T19:03:15.235Z,0.09
2022-11-18T19:06:49.131Z,0.12
2022-11-18T19:09:26.721Z,0.10
2022-11-18T19:12:34.091Z,0.03
2022-11-18T19:15:41.279Z,0.03
2022-11-18T19:18:48.069Z,0.02
2022-11-18T19:21:56.114Z,-0.06
2022-11-18T19:25:03.829Z,-0.12
2022-11-18T19:28:10.988Z,-0.22
2022-11-18T19:31:18.328Z,-0.26
2022-11-18T19:34:25.841Z,-0.34
2022-11-18T19:37:33.137Z,-0.31
2022-11-18T19:40:40.359Z,-0.31
2022-11-18T19:43:47.758Z,-0.39
2022-11-18T19:46:54.911Z,-0.45
2022-11-18T19:50:01.719Z,-0.51
2022-11-18T19:53:09.154Z,-0.54
2022-11-18T19:56:16.032Z,-0.60
2022-11-18T19:59:23.546Z,-0.66
2022-11-18T20:02:30.353Z,-0.69
2022-11-18T20:05:37.222Z,-0.75
2022-11-18T20:08:44.883Z,-0.80
2022-11-18T20:11:52.282Z,-0.84
2022-11-18T20:14:59.124Z,-0.83
2022-11-18T20:18:06.336Z,-0.86
2022-11-18T20:21:13.136Z,-0.86
2022-11-18T20:24:20.774Z,-0.84
2022-11-18T20:27:29.763Z,-0.84
2022-11-18T20:30:37.591Z,-0.80
2022-11-18T20:33:46.077Z,-0.83
2022-11-18T20:36:53.528Z,-0.78
2022-11-18T20:40:02.285Z,-0.75
2022-11-18T20:43:09.945Z,-0.77
2022-11-18T20:46:20.310Z,-0.83
2022-11-18T20:49:28.256Z,-0.87
2022-11-18T20:52:35.498Z,-0.94
2022-11-18T20:55:42.731Z,-0.94
2022-11-18T20:58:50.107Z,-0.95
2022-11-18T21:01:57.233Z,-0.94
2022-11-18T21:05:04.456Z,-0.99
2022-11-18T21:08:11.628Z,-1.00
2022-11-18T21:11:18.436Z,-1.03
2022-11-18T21:14:26.082Z,-1.05
2022-11-18T21:17:33.266Z,-1.06
2022-11-18T21:20:40.347Z,-1.12
2022-11-18T21:23:47.849Z,-1.12
2022-11-18T21:26:54.978Z,-1.13
2022-11-18T21:30:02.141Z,-1.17
2022-11-18T21:33:09.560Z,-1.20
2022-11-18T21:36:16.269Z,-1.18
2022-11-18T21:39:23.698Z,-1.23
2022-11-18T21:42:31.203Z,-1.25
2022-11-18T21:45:37.927Z,-1.23
2022-11-18T21:48:45.371Z,-1.23
2022-11-18T21:51:52.800Z,-1.24
2022-11-18T21:54:59.711Z,-1.28
2022-11-18T21:58:06.859Z,-1.30
2022-11-18T22:01:13.979Z,-1.33
2022-11-18T22:04:20.761Z,-1.38
2022-11-18T22:07:28.354Z,-1.41
2022-11-18T22:10:35.153Z,-1.43
2022-11-18T22:13:42.331Z,-1.48
2022-11-18T22:16:49.403Z,-1.53
2022-11-18T22:19:56.893Z,-1.54
2022-11-18T22:23:04.183Z,-1.57
2022-11-18T22:26:11.405Z,-1.62
2022-11-18T22:29:19.338Z,-1.66
2022-11-18T22:32:26.502Z,-1.70
2022-11-18T22:35:33.571Z,-1.75
2022-11-18T22:38:40.963Z,-1.75
2022-11-18T22:41:48.305Z,-1.78
2022-11-18T22:44:55.402Z,-1.85
2022-11-18T22:48:02.907Z,-1.87
2022-11-18T22:51:09.634Z,-1.90
2022-11-18T22:57:22.094Z,-1.99
2022-11-18T23:00:28.812Z,-2.03
2022-11-18T23:03:36.416Z,-2.08
2022-11-18T23:06:43.537Z,-2.02
2022-11-18T23:09:50.327Z,-2.02
2022-11-18T23:12:57.720Z,-2.03
2022-11-18T23:16:04.957Z,-2.06
2022-11-18T23:19:12.246Z,-2.10
2022-11-18T23:22:19.905Z,-2.16
2022-11-18T23:25:27.097Z,-2.18
2022-11-18T23:28:34.328Z,-2.20
2022-11-18T23:31:41.470Z,-2.24
2022-11-18T23:34:48.599Z,-2.26
2022-11-18T23:37:55.778Z,-2.26
2022-11-18T23:41:02.577Z,-2.29
2022-11-18T23:44:09.627Z,-2.36
2022-11-18T23:47:17.060Z,-2.36
2022-11-18T23:50:24.208Z,-2.39
2022-11-18T23:53:31.356Z,-2.45
2022-11-18T23:56:38.641Z,-2.48
2022-11-18T23:59:46.052Z,-2.57
